FTTA

Sarh Airport

Sarh, Chad
METAR FTTA 220300Z 22004KT 9999 FEW020 FEW050CB 24/21 Q1011
Observed Flight Rules
Sep-22 @ 03:00 UTC (24 minutes ago) Visual Flight Rules
Wind Visibility Clouds
220° at 4 knots 10,000+ meters
Temperatures Readings
Current 24°C / 75°F
Dewpoint 21°C / 70°F
Humidity 83%
Altimeter 29.85" Hg
Pressure 1011 hPa
Elevation 365
METAR FTTA 220300Z 22004KT 9999 FEW020 FEW050CB 24/21 Q1011
Observed Flight Rules
Sep-22 @ 03:00 UTC
(24 minutes ago)
VFR
Wind Visibility
220° at 4 knots 10,000+ meters
Clouds
Temperature Dewpoint
24°C / 75°F 21°C / 70°F
Humidity Altimeter Pressure
83% 29.85" Hg 1011 hPa